• Join FlightAware (Why Join?)
  • Login
  • US Flag 
05:49AM EST


 

Airport Tracker/Info


-or-


 

Live Flight TrackerFlight Track Log ✈ DAL3865 ✈ 08-May-2014 ✈ KATL - KFWA

Flight Track Log - Related Links

Times and Time Zones

All times are in EDT time to prevent confusion due to time zone crossing. See the DAL3865 flight status page for this flight to view local times or setup timezone preferences in your user account.

Time Position Orientation Groundspeed Altitude Reporting Facility
EDT Latitude Longitude Course Direction KTS MPH feet Rate Location/Type
03:09PM 33.6500 -84.4667 301° West 190 219 2,400  Level Atlanta TRACON
03:10PM 33.6833 -84.5333 301° West 264 304 3,800 1,950 Climbing Atlanta TRACON
03:11PM 33.7333 -84.5833 320° Northwest 293 337 6,300 2,550 Climbing Atlanta TRACON
03:12PM 33.8167 -84.5833 360° North 294 338 8,900 2,216 Climbing Atlanta TRACON
03:13PM 33.8808 -84.5817 North 295 339 10,400 1,429 Climbing Atlanta Center
03:14PM 33.9706 -84.5822 360° North 306 352 11,400 1,300 Climbing Atlanta Center
03:15PM 34.0728 -84.5881 357° North 338 389 13,000 1,700 Climbing Atlanta Center
03:16PM 34.1769 -84.5936 357° North 358 412 14,800 1,650 Climbing Atlanta Center
03:17PM 34.2794 -84.5944 360° North 369 425 16,300 1,350 Climbing Atlanta Center
03:18PM 34.3814 -84.6203 348° North 369 425 17,500 1,150 Climbing Atlanta Center
03:19PM 34.4856 -84.6461 348° North 369 425 18,600 1,000 Climbing Atlanta Center
03:20PM 34.5922 -84.6544 356° North 374 430 19,500 850 Climbing Atlanta Center
03:21PM 34.7025 -84.6628 356° North 381 438 20,300 850 Climbing Atlanta Center
03:22PM 34.8111 -84.6711 356° North 386 444 21,200 800 Climbing Atlanta Center
03:23PM 34.9217 -84.6797 356° North 391 450 21,900 750 Climbing Atlanta Center
03:24PM 35.0322 -84.6881 356° North 391 450 22,700 800 Climbing Atlanta Center
03:25PM 35.1428 -84.6967 356° North 391 450 23,500 800 Climbing Atlanta Center
03:26PM 35.2533 -84.7050 356° North 391 450 24,300 800 Climbing Atlanta Center
03:27PM 35.3617 -84.7136 356° North 391 450 25,100 800 Climbing Atlanta Center
03:28PM 35.4703 -84.7222 356° North 391 450 25,900 55 Climbing Atlanta Center
03:43PM 37.3211 -84.8686 356° North 435 501 26,000 Climbing Indianapolis Center
03:44PM 37.1044 -84.8407 357° North  Level FlightAware Approximate
03:44PM 37.4431 -84.8792 356° North 435 501 26,000  Level Indianapolis Center
03:45PM 37.2076 -84.8485 357° North  Level FlightAware Approximate
03:45PM 37.5642 -84.8897 356° North 435 501 26,000  Level Indianapolis Center
03:46PM 37.3107 -84.8563 357° North  Level FlightAware Approximate
03:46PM 37.6872 -84.8994 356° North 435 501 26,000  Level Indianapolis Center
03:47PM 37.4139 -84.8641 357° North  Level FlightAware Approximate
03:47PM 37.8094 -84.9094 356° North 437 503 26,000  Level Indianapolis Center
03:48PM 37.5171 -84.8719 357° North  Level FlightAware Approximate
03:48PM 37.9525 -84.9214 356° North 437 503 26,000  Level Indianapolis Center
03:49PM 37.6203 -84.8798 357° North  Level FlightAware Approximate
03:49PM 38.0769 -84.9314 356° North 440 506 26,000  Level Indianapolis Center
03:50PM 37.7234 -84.8885 356° North  Level FlightAware Approximate
03:50PM 38.1997 -84.9417 356° North 440 506 26,000  Level Indianapolis Center
03:51PM 37.8265 -84.8980 356° North  Level FlightAware Approximate
03:51PM 38.3242 -84.9531 356° North 441 507 26,000  Level Indianapolis Center
03:52PM 37.9296 -84.9075 356° North  Level FlightAware Approximate
03:52PM 38.4472 -84.9647 356° North 444 511 26,000  Level Indianapolis Center
03:53PM 38.0327 -84.9170 356° North  Level FlightAware Approximate
03:53PM 38.5742 -84.9736 357° North 446 513 26,000  Level Indianapolis Center
03:54PM 38.7011 -84.9839 356° North 450 518 26,000 -145 Level Indianapolis Center
03:56PM 38.8519 -84.9986 356° North 453 521 25,700 -871 Descending Indianapolis Center
03:57PM 38.9825 -85.0092 356° North 463 533 24,200 -823 Descending Indianapolis Center
03:58PM 39.1133 -85.0206 356° North 473 544 24,000 -97 Descending Indianapolis Center
03:59PM 39.2375 -85.0317 356° North 459 528 24,000 -677 Level Indianapolis Center
04:00PM 39.3622 -85.0417 356° North 453 521 22,600 -1,452 Descending Indianapolis Center
04:01PM 39.5108 -85.0556 356° North 452 520 21,000 -774 Descending Indianapolis Center
04:02PM 39.6253 -85.0653 356° North 432 497 21,000  Level Indianapolis Center
04:03PM 39.7308 -85.0733 357° North 402 463 21,000  Level Indianapolis Center
04:04PM 39.8392 -85.0836 356° North 392 451 21,000 -145 Level Indianapolis Center
04:05PM 39.9497 -85.0942 356° North 393 452 20,700 -1,113 Descending Indianapolis Center
04:06PM 40.0911 -85.1056 356° North 413 475 18,700 -2,032 Descending Indianapolis Center
04:07PM 40.2103 -85.1164 356° North 424 488 16,500 -2,177 Descending Indianapolis Center
04:08PM 40.3231 -85.1281 355° North 418 481 14,200 -2,226 Descending Indianapolis Center
04:09PM 40.4281 -85.1369 356° North 392 451 11,900 -1,839 Descending Indianapolis Center
04:10PM 40.5244 -85.1456 356° North 362 417 10,400 -1,296 Descending Indianapolis Center
04:11PM 40.6233 -85.1272 North 309 356 9,200 -1,200 Descending Indianapolis Center
04:12PM 40.6994 -85.1161 North 284 327 7,900 -1,403 Descending Indianapolis Center
04:13PM 40.7778 -85.1061 North 284 327 6,300 -1,210 Descending Indianapolis Center
04:14PM 40.8667 -85.0972 North 284 327 5,400 -1,490 Descending Indianapolis Center
04:16PM 40.9719 -85.0822 North 286 329 2,600 -1,369 Descending Chicago Center
04:17PM 41.0253 -85.1092 339° North 249 287 2,000 -290 Descending Chicago Center
04:18PM 41.0153 -85.1814 260° West 241 277 2,000  Level Chicago Center
04:20PM 40.9785 -85.1952 North  Level Estimated